Time;durP1;ratioP1;P1;durP2;ratioP2;P2;SDS_P1;SDS_P2;PMS_P1;PMS_P2;Temp;Humidity;BMP_temperature;BMP_pressure;BME280_temperature;BME280_humidity;BME280_pressure;Samples;Min_cycle;Max_cycle;Signal;HPM_P1;HPM_P2
2021/08/30 00:00:14;;;;;;;;;3.25;1.00;;;;;18.58;63.47;101756.19;6275592;22;45318;-60
2021/08/30 00:02:40;;;;;;;;;4.00;2.50;;;;;18.60;63.32;101757.75;6275243;22;45164;-60
2021/08/30 00:05:07;;;;;;;;;4.00;3.00;;;;;18.59;63.52;101741.84;6274694;22;45559;-60
2021/08/30 00:07:35;;;;;;;;;4.25;3.25;;;;;18.58;63.25;101743.69;6275099;22;46333;-60
2021/08/30 00:10:01;;;;;;;;;6.00;2.75;;;;;18.57;63.35;101750.00;6274844;22;45252;-59
2021/08/30 00:12:26;;;;;;;;;3.75;3.75;;;;;18.59;63.67;101752.53;6275507;22;45401;-59
2021/08/30 00:14:52;;;;;;;;;5.00;3.75;;;;;18.58;63.51;101743.69;6275079;22;45257;-59
2021/08/30 00:17:19;;;;;;;;;3.75;2.75;;;;;18.59;63.68;101747.19;6275332;22;45259;-58
2021/08/30 00:19:45;;;;;;;;;7.75;5.25;;;;;18.59;63.89;101749.88;6274842;22;45269;-59
2021/08/30 00:22:10;;;;;;;;;5.00;4.25;;;;;18.59;63.81;101749.88;6275251;22;45244;-59
2021/08/30 00:24:36;;;;;;;;;6.25;4.50;;;;;18.58;63.45;101746.34;6274677;22;45448;-60
2021/08/30 00:27:01;;;;;;;;;2.00;2.00;;;;;18.57;63.99;101741.13;6275526;22;45297;-59
2021/08/30 00:29:27;;;;;;;;;4.25;4.00;;;;;18.58;63.83;101741.00;6275247;22;45203;-59
2021/08/30 00:31:53;;;;;;;;;4.00;4.00;;;;;18.58;63.74;101745.50;6275514;22;45519;-61
2021/08/30 00:34:19;;;;;;;;;4.25;4.25;;;;;18.57;63.91;101744.66;6275243;22;45133;-60
2021/08/30 00:36:45;;;;;;;;;10.25;5.00;;;;;18.60;63.75;101743.56;6273852;22;45766;-60
2021/08/30 00:39:10;;;;;;;;;5.25;5.00;;;;;18.58;64.06;101735.69;6274657;22;45163;-60
2021/08/30 00:41:35;;;;;;;;;7.00;6.00;;;;;18.56;63.78;101742.06;6274900;22;45399;-60
2021/08/30 00:44:01;;;;;;;;;4.25;4.25;;;;;18.54;64.12;101736.88;6275117;22;45086;-60
2021/08/30 00:46:27;;;;;;;;;9.75;3.75;;;;;18.52;64.27;101728.13;6274244;22;45669;-61
2021/08/30 00:48:52;;;;;;;;;8.50;5.00;;;;;18.53;64.48;101732.50;6274817;22;45312;-61
2021/08/30 00:51:20;;;;;;;;;5.00;4.25;;;;;18.57;64.09;101735.81;6274874;22;45290;-60
2021/08/30 00:53:47;;;;;;;;;6.50;5.00;;;;;18.54;64.13;101739.53;6274098;22;45700;-59
2021/08/30 00:56:13;;;;;;;;;6.25;5.00;;;;;18.53;64.61;101737.84;6273702;22;46385;-60
2021/08/30 00:58:43;;;;;;;;;7.00;6.75;;;;;18.53;64.46;101732.50;6274528;22;45212;-61
2021/08/30 01:01:10;;;;;;;;;5.00;5.00;;;;;18.54;64.63;101734.19;6275222;22;45305;-60
2021/08/30 01:03:37;;;;;;;;;6.00;6.00;;;;;18.53;64.70;101736.97;6274641;22;45498;-59
2021/08/30 01:06:14;;;;;;;;;7.00;6.00;;;;;18.53;65.37;101734.31;6273958;22;45475;-60
2021/08/30 01:08:50;;;;;;;;;6.00;5.75;;;;;18.51;65.18;101730.94;6274913;22;45227;-61
2021/08/30 01:11:21;;;;;;;;;7.00;7.00;;;;;18.47;65.33;101721.44;6274392;22;45258;-62
2021/08/30 01:13:58;;;;;;;;;12.00;7.25;;;;;18.44;65.62;101727.03;6274526;22;45373;-61
2021/08/30 01:16:26;;;;;;;;;10.50;7.25;;;;;18.40;65.94;101729.91;6273694;22;45266;-62
2021/08/30 01:18:54;;;;;;;;;8.00;7.25;;;;;18.35;66.20;101720.56;6274300;22;45311;-61
2021/08/30 01:21:23;;;;;;;;;10.50;6.75;;;;;18.34;66.45;101726.88;6273903;22;45244;-62
2021/08/30 01:24:13;;;;;;;;;7.50;7.25;;;;;18.33;66.34;101718.03;6274523;22;45552;-61
2021/08/30 01:26:59;;;;;;;;;8.50;7.50;;;;;18.37;66.56;101719.47;6277018;22;45234;-61
2021/08/30 01:29:36;;;;;;;;;8.00;6.00;;;;;18.41;66.53;101720.13;6273956;22;45500;-61
2021/08/30 01:32:37;;;;;;;;;12.00;7.75;;;;;18.35;66.79;101713.44;6274811;22;45268;-62
2021/08/30 01:35:14;;;;;;;;;10.50;7.50;;;;;18.31;66.64;101714.63;6274362;22;45389;-63
2021/08/30 01:37:41;;;;;;;;;9.00;8.25;;;;;18.30;67.04;101712.06;6273216;22;45411;-62
2021/08/30 01:40:09;;;;;;;;;9.25;9.00;;;;;18.31;67.08;101708.44;6274030;22;45601;-61
2021/08/30 01:42:37;;;;;;;;;10.50;8.75;;;;;18.31;67.19;101708.44;6274094;22;45204;-62
2021/08/30 01:45:09;;;;;;;;;11.25;8.25;;;;;18.33;67.14;101707.38;6274141;22;45389;-62
2021/08/30 01:47:37;;;;;;;;;13.50;9.25;;;;;18.33;67.29;101707.38;6274224;22;45412;-61
2021/08/30 01:50:06;;;;;;;;;10.75;10.00;;;;;18.34;67.28;101710.88;6273712;22;45399;-62
2021/08/30 01:52:34;;;;;;;;;8.75;8.25;;;;;18.33;67.56;101707.38;6273146;22;45274;-62
2021/08/30 01:55:06;;;;;;;;;9.50;9.00;;;;;18.33;67.57;101704.69;6274007;22;45239;-62
2021/08/30 01:57:43;;;;;;;;;9.25;8.00;;;;;18.36;67.68;101707.13;6273486;22;46596;-62
2021/08/30 02:02:53;;;;;;;;;13.75;10.00;;;;;18.32;68.48;101710.97;6274257;22;45405;-61
2021/08/30 02:05:19;;;;;;;;;11.00;9.00;;;;;18.31;68.39;101703.09;6273487;22;45236;-62
2021/08/30 02:07:44;;;;;;;;;13.00;10.00;;;;;18.28;68.52;101706.84;6273477;22;45921;-63
2021/08/30 02:10:10;;;;;;;;;9.00;8.00;;;;;18.28;68.96;101706.84;6274152;22;45237;-63
2021/08/30 02:12:36;;;;;;;;;10.50;9.50;;;;;18.27;69.14;101702.50;6274123;22;45070;-62
2021/08/30 02:15:01;;;;;;;;;9.75;9.00;;;;;18.27;68.72;101706.97;6274527;22;45154;-62
2021/08/30 02:17:33;;;;;;;;;9.00;7.25;;;;;18.27;69.39;101702.50;6273841;22;45971;-62
2021/08/30 02:20:21;;;;;;;;;3.25;2.50;;;;;18.26;69.26;101708.78;6273821;22;45220;-61
2021/08/30 02:22:48;;;;;;;;;7.50;7.00;;;;;18.24;69.02;101702.72;6273471;22;45334;-62
2021/08/30 02:25:18;;;;;;;;;8.25;7.75;;;;;18.25;69.31;101708.91;6273291;22;45341;-62
2021/08/30 02:27:58;;;;;;;;;8.75;8.00;;;;;18.25;69.47;101708.91;6272496;22;45873;-62
2021/08/30 02:30:32;;;;;;;;;13.25;8.25;;;;;18.23;69.61;101713.50;6270808;22;45540;-62
2021/08/30 02:33:06;;;;;;;;;11.25;7.00;;;;;18.19;69.74;101706.72;6271508;22;45380;-61
2021/08/30 02:35:35;;;;;;;;;11.50;8.25;;;;;18.18;69.83;101705.88;6271213;22;45388;-61
2021/08/30 02:38:02;;;;;;;;;12.25;10.25;;;;;18.22;69.85;101699.31;6270451;22;45579;-61
2021/08/30 02:40:29;;;;;;;;;8.50;7.00;;;;;18.23;69.94;101698.34;6271582;22;45569;-61
2021/08/30 02:42:58;;;;;;;;;11.25;7.25;;;;;18.23;69.84;101693.00;6271803;22;45345;-61
2021/08/30 02:45:25;;;;;;;;;8.50;6.25;;;;;18.24;69.81;101702.72;6273404;22;45320;-61
2021/08/30 02:47:51;;;;;;;;;11.75;8.75;;;;;18.25;69.79;101699.09;6273485;22;45396;-61
2021/08/30 02:50:18;;;;;;;;;13.75;11.25;;;;;18.27;69.88;101697.16;6273916;22;45255;-61
2021/08/30 02:52:45;;;;;;;;;11.50;7.50;;;;;18.27;69.78;101694.50;6273708;22;45200;-61
2021/08/30 02:55:12;;;;;;;;;7.75;7.75;;;;;18.30;69.54;101696.06;6273668;22;45547;-61
2021/08/30 02:57:39;;;;;;;;;8.25;6.75;;;;;18.30;69.91;101699.56;6274041;22;45325;-62
2021/08/30 03:00:06;;;;;;;;;8.50;7.75;;;;;18.33;69.65;101695.84;6274010;22;45244;-61
2021/08/30 03:02:32;;;;;;;;;9.25;8.25;;;;;18.33;69.95;101707.38;6274206;22;45284;-61
2021/08/30 03:04:59;;;;;;;;;9.50;8.00;;;;;18.36;69.98;101700.94;6273547;22;45459;-62
2021/08/30 03:07:29;;;;;;;;;11.50;8.75;;;;;18.36;69.80;101696.44;6274296;22;45109;-61
2021/08/30 03:09:56;;;;;;;;;14.00;10.00;;;;;18.36;70.01;101699.13;6275687;22;45278;-61
2021/08/30 03:12:22;;;;;;;;;13.00;11.25;;;;;18.35;70.38;101692.09;6276282;22;45243;-61
2021/08/30 03:14:49;;;;;;;;;11.75;9.00;;;;;18.37;70.35;101702.63;6274569;22;45521;-61
2021/08/30 03:17:16;;;;;;;;;13.00;12.00;;;;;18.36;70.32;101698.28;6275765;22;45355;-61
2021/08/30 03:19:44;;;;;;;;;11.00;10.75;;;;;18.36;70.32;101695.59;6275640;22;45215;-60
2021/08/30 03:22:11;;;;;;;;;10.50;10.00;;;;;18.33;70.25;101696.69;6275632;22;45309;-61
2021/08/30 03:24:39;;;;;;;;;14.00;11.50;;;;;18.33;70.47;101695.84;6275972;22;45246;-61
2021/08/30 03:27:06;;;;;;;;;13.25;12.00;;;;;18.32;70.73;101692.31;6275626;22;45300;-61
2021/08/30 03:29:33;;;;;;;;;10.00;10.00;;;;;18.31;70.41;101692.41;6275672;22;45337;-61
2021/08/30 03:32:01;;;;;;;;;11.50;10.50;;;;;18.29;70.60;101695.22;6276080;22;45279;-61
2021/08/30 03:34:27;;;;;;;;;19.00;11.00;;;;;18.31;70.58;101687.09;6273532;22;45347;-61
2021/08/30 03:36:53;;;;;;;;;12.50;9.50;;;;;18.34;70.92;101692.22;6273675;22;46175;-62
2021/08/30 03:39:20;;;;;;;;;12.50;10.50;;;;;18.32;70.29;101681.63;6275093;22;45165;-61
2021/08/30 03:41:47;;;;;;;;;12.75;11.00;;;;;18.33;70.53;101685.19;6275906;22;45337;-62
2021/08/30 03:44:13;;;;;;;;;14.25;11.75;;;;;18.33;70.56;101686.03;6275880;22;45268;-61
2021/08/30 03:46:39;;;;;;;;;12.00;10.00;;;;;18.35;70.84;101678.75;6275065;22;45222;-61
2021/08/30 03:49:06;;;;;;;;;8.75;8.75;;;;;18.39;70.88;101687.34;6275994;22;45246;-61
2021/08/30 03:51:35;;;;;;;;;11.25;10.00;;;;;18.42;71.10;101687.13;6275669;22;45234;-61
2021/08/30 03:54:03;;;;;;;;;11.50;10.25;;;;;18.44;70.87;101685.19;6275504;22;45159;-61
2021/08/30 03:56:29;;;;;;;;;11.50;11.25;;;;;18.44;70.46;101684.34;6275277;22;46073;-61
2021/08/30 03:58:55;;;;;;;;;10.50;9.25;;;;;18.41;70.68;101678.28;6275545;22;45305;-61
2021/08/30 04:01:25;;;;;;;;;9.25;9.00;;;;;18.44;70.57;101676.34;6276215;22;45317;-61
2021/08/30 04:03:54;;;;;;;;;13.50;11.00;;;;;18.47;71.00;101684.09;6275330;22;45156;-61
2021/08/30 04:06:22;;;;;;;;;12.25;11.00;;;;;18.47;71.10;101684.09;6273102;22;45308;-61
2021/08/30 04:08:48;;;;;;;;;12.75;8.50;;;;;18.50;70.87;101687.38;6275414;22;45404;-61
2021/08/30 04:11:15;;;;;;;;;13.75;12.00;;;;;18.52;70.76;101684.59;6275749;22;45289;-61
2021/08/30 04:13:41;;;;;;;;;14.00;11.25;;;;;18.51;70.83;101678.41;6275350;22;45489;-61
2021/08/30 04:16:07;;;;;;;;;16.75;12.25;;;;;18.53;70.82;101679.13;6275319;22;46073;-61
2021/08/30 04:18:33;;;;;;;;;13.25;12.00;;;;;18.53;70.80;101687.13;6274974;22;45750;-61
2021/08/30 04:20:58;;;;;;;;;16.25;12.00;;;;;18.53;70.38;101680.94;6275497;22;45237;-61
2021/08/30 04:23:24;;;;;;;;;13.00;12.00;;;;;18.56;71.16;101686.88;6275646;22;45258;-61
2021/08/30 04:25:49;;;;;;;;;12.50;10.00;;;;;18.57;70.64;101688.63;6275409;22;45235;-61
2021/08/30 04:28:15;;;;;;;;;11.50;10.75;;;;;18.57;70.63;101690.44;6275084;22;45187;-62
2021/08/30 04:30:40;;;;;;;;;17.00;12.00;;;;;18.57;70.72;101685.94;6275025;22;45285;-61
2021/08/30 04:33:09;;;;;;;;;12.00;11.25;;;;;18.58;70.54;101692.13;6275539;22;45431;-61
2021/08/30 04:35:34;;;;;;;;;20.50;16.00;;;;;18.58;70.80;101682.31;6274925;22;45160;-61
2021/08/30 04:38:00;;;;;;;;;17.25;13.75;;;;;18.62;70.73;101690.91;6274495;22;45217;-61
2021/08/30 04:40:25;;;;;;;;;16.75;13.50;;;;;18.62;70.82;101685.56;6275872;22;45432;-61
2021/08/30 04:42:51;;;;;;;;;13.50;12.50;;;;;18.61;71.09;101686.53;6275389;22;45183;-61
2021/08/30 04:45:17;;;;;;;;;17.50;16.00;;;;;18.58;71.04;101690.31;6275160;22;45231;-61
2021/08/30 04:47:42;;;;;;;;;16.00;15.75;;;;;18.59;70.99;101683.16;6275517;22;45271;-61
2021/08/30 04:50:08;;;;;;;;;20.75;15.25;;;;;18.59;71.09;101688.50;6275527;22;45250;-61
2021/08/30 04:52:34;;;;;;;;;21.75;16.00;;;;;18.58;70.82;101695.66;6274688;22;45224;-61
2021/08/30 04:54:59;;;;;;;;;14.25;11.75;;;;;18.57;71.00;101696.63;6275222;22;45909;-62
2021/08/30 04:57:25;;;;;;;;;21.00;15.00;;;;;18.59;71.29;101699.16;6275323;22;45342;-61
2021/08/30 04:59:50;;;;;;;;;17.00;15.75;;;;;18.63;71.06;101706.78;6275617;22;45197;-62
2021/08/30 05:02:16;;;;;;;;;21.25;16.75;;;;;18.62;71.23;101699.75;6275522;22;45223;-61
2021/08/30 05:04:41;;;;;;;;;24.25;18.25;;;;;18.66;70.81;101709.28;6275018;22;45286;-61
2021/08/30 05:07:07;;;;;;;;;17.50;17.00;;;;;18.68;70.95;101710.00;6274867;22;45254;-61
2021/08/30 05:09:33;;;;;;;;;15.75;13.75;;;;;18.68;70.86;101707.31;6275509;22;45219;-61
2021/08/30 05:11:58;;;;;;;;;19.25;16.50;;;;;18.69;71.23;101709.03;6273259;22;45181;-61
2021/08/30 05:14:24;;;;;;;;;24.00;19.50;;;;;18.73;71.21;101712.31;6275149;22;45282;-61
2021/08/30 05:16:49;;;;;;;;;17.00;15.75;;;;;18.72;70.65;101707.91;6275147;22;45170;-61
2021/08/30 05:19:15;;;;;;;;;19.75;17.00;;;;;18.73;71.07;101704.31;6274843;22;45142;-61
2021/08/30 05:21:40;;;;;;;;;18.75;17.00;;;;;18.73;70.74;101709.66;6274816;22;45164;-62
2021/08/30 05:24:07;;;;;;;;;23.25;20.25;;;;;18.73;70.96;101706.13;6274586;22;45214;-61
2021/08/30 05:26:34;;;;;;;;;19.75;18.25;;;;;18.75;70.74;101713.03;6273942;22;45341;-61
2021/08/30 05:28:59;;;;;;;;;24.00;20.00;;;;;18.75;70.76;101701.50;6274977;22;45224;-61
2021/08/30 05:31:25;;;;;;;;;21.00;20.50;;;;;18.77;70.65;101711.09;6274403;22;45521;-61
2021/08/30 05:33:51;;;;;;;;;24.75;21.00;;;;;18.79;70.52;101713.63;6274908;22;45409;-61
2021/08/30 05:36:16;;;;;;;;;19.25;18.25;;;;;18.79;70.70;101711.81;6273523;22;45474;-61
2021/08/30 05:38:42;;;;;;;;;27.25;23.00;;;;;18.78;70.61;101715.47;6273011;22;45139;-61
2021/08/30 05:41:07;;;;;;;;;25.75;22.00;;;;;18.76;70.89;101719.22;6274989;22;45210;-61
2021/08/30 05:43:33;;;;;;;;;26.25;20.25;;;;;18.75;71.12;101714.88;6274507;22;45278;-61
2021/08/30 05:45:58;;;;;;;;;27.25;26.25;;;;;18.74;71.03;101726.50;6273751;22;45087;-61
2021/08/30 05:48:24;;;;;;;;;30.00;25.25;;;;;18.77;71.40;101719.09;6274908;22;45219;-60
2021/08/30 05:50:49;;;;;;;;;25.25;24.25;;;;;18.80;70.68;101721.56;6274658;22;45373;-62
2021/08/30 05:53:15;;;;;;;;;23.00;22.00;;;;;18.78;71.09;101715.47;6273853;22;46031;-61
2021/08/30 05:55:40;;;;;;;;;28.75;26.75;;;;;18.79;70.76;101725.16;6274361;22;45085;-59
2021/08/30 05:58:06;;;;;;;;;26.75;23.75;;;;;18.81;70.99;101723.25;6274750;22;45464;-60
2021/08/30 06:00:31;;;;;;;;;27.50;21.25;;;;;18.80;70.72;101726.00;6274331;22;45142;-60
2021/08/30 06:02:57;;;;;;;;;27.75;25.25;;;;;18.75;70.73;101718.38;6272532;22;46129;-60
2021/08/30 06:05:22;;;;;;;;;24.75;24.75;;;;;18.76;70.86;101720.06;6273491;22;45246;-60
2021/08/30 06:07:48;;;;;;;;;27.25;23.25;;;;;18.78;70.90;101730.63;6274183;22;45286;-60
2021/08/30 06:10:14;;;;;;;;;29.50;25.50;;;;;18.80;71.07;101736.69;6274413;22;45527;-60
2021/08/30 06:12:40;;;;;;;;;22.50;21.50;;;;;18.81;71.20;101727.75;6274349;22;46164;-60
2021/08/30 06:15:06;;;;;;;;;24.75;22.75;;;;;18.89;70.67;101736.00;6274088;22;45197;-62
2021/08/30 06:17:32;;;;;;;;;22.50;21.00;;;;;18.89;70.83;101736.00;6274272;22;45270;-61
2021/08/30 06:19:57;;;;;;;;;32.25;26.75;;;;;18.89;70.85;101731.50;6274169;22;45211;-61
2021/08/30 06:22:23;;;;;;;;;27.00;21.00;;;;;18.88;70.92;101740.50;6273581;22;45868;-61
2021/08/30 06:24:50;;;;;;;;;32.25;28.00;;;;;18.91;70.85;101736.72;6273858;22;45248;-60
2021/08/30 06:27:18;;;;;;;;;28.50;25.50;;;;;18.93;70.47;101734.78;6274695;22;45215;-60
2021/08/30 06:29:44;;;;;;;;;25.00;23.50;;;;;18.95;70.76;101741.69;6272519;22;45248;-60
2021/08/30 06:32:09;;;;;;;;;31.00;29.00;;;;;18.98;70.52;101737.09;6272424;22;46111;-60
2021/08/30 06:34:35;;;;;;;;;29.25;27.25;;;;;19.02;70.43;101742.06;6273313;22;45300;-60
2021/08/30 06:37:00;;;;;;;;;29.50;27.75;;;;;19.04;70.33;101744.59;6244546;22;45309;-60
2021/08/30 06:39:26;;;;;;;;;31.50;27.75;;;;;19.01;70.02;101743.03;6273569;22;45332;-61
2021/08/30 06:41:51;;;;;;;;;30.75;27.25;;;;;18.98;70.28;101748.63;6273617;22;45515;-61
2021/08/30 06:44:17;;;;;;;;;30.50;28.50;;;;;19.00;70.51;101741.31;6273640;22;45141;-58
2021/08/30 06:46:42;;;;;;;;;33.00;27.50;;;;;19.05;69.90;101747.16;6274147;22;45223;-58
2021/08/30 06:49:08;;;;;;;;;24.25;22.25;;;;;19.07;70.40;101745.22;6274387;22;45425;-59
2021/08/30 06:51:33;;;;;;;;;27.75;24.50;;;;;19.06;70.05;101743.53;6273667;22;45906;-59
2021/08/30 06:53:59;;;;;;;;;26.25;24.75;;;;;19.06;69.78;101738.19;6274096;22;45146;-58
2021/08/30 06:56:25;;;;;;;;;27.00;25.50;;;;;19.07;69.84;101750.56;6273623;22;45308;-58
2021/08/30 06:58:50;;;;;;;;;35.75;29.50;;;;;19.08;69.56;101746.91;6274382;22;45441;-59
2021/08/30 07:01:16;;;;;;;;;28.50;26.50;;;;;19.09;69.90;101748.59;6274282;22;45886;-59
2021/08/30 07:03:41;;;;;;;;;30.50;28.00;;;;;19.11;69.79;101751.16;6273734;22;45279;-59
2021/08/30 07:06:07;;;;;;;;;23.50;21.25;;;;;19.12;69.51;101752.88;6273413;22;45548;-59
2021/08/30 07:08:32;;;;;;;;;22.00;22.00;;;;;19.14;69.32;101756.28;6274197;22;45509;-59
2021/08/30 07:10:58;;;;;;;;;26.75;22.50;;;;;19.16;69.68;101755.16;6273876;22;45281;-59
2021/08/30 07:13:23;;;;;;;;;29.50;25.25;;;;;19.17;69.39;101748.84;6273994;22;45234;-59
2021/08/30 07:15:49;;;;;;;;;30.25;28.25;;;;;19.20;69.14;101756.63;6273812;22;45243;-60
2021/08/30 07:18:15;;;;;;;;;29.00;23.25;;;;;19.20;69.59;101753.13;6274112;22;45231;-59
2021/08/30 07:20:42;;;;;;;;;25.50;21.75;;;;;19.20;69.26;101764.66;6273747;22;45343;-61
2021/08/30 07:23:09;;;;;;;;;24.25;21.75;;;;;19.20;69.24;101761.97;6273857;22;45191;-59
2021/08/30 07:25:35;;;;;;;;;24.50;22.25;;;;;19.24;68.91;101765.25;6273781;22;45156;-60
2021/08/30 07:28:00;;;;;;;;;25.25;24.50;;;;;19.27;68.97;101769.47;6274236;22;45371;-60
2021/08/30 07:30:26;;;;;;;;;26.50;24.50;;;;;19.30;69.21;101769.25;6274185;22;45467;-59
2021/08/30 07:32:52;;;;;;;;;24.50;23.00;;;;;19.30;69.07;101766.59;6273986;22;45111;-60
2021/08/30 07:35:18;;;;;;;;;30.00;22.25;;;;;19.33;69.06;101766.34;6273671;22;45322;-59
2021/08/30 07:37:44;;;;;;;;;26.00;22.50;;;;;19.37;68.37;101774.00;6273029;22;45242;-59
2021/08/30 07:40:10;;;;;;;;;24.75;23.00;;;;;19.41;68.52;101769.25;6274083;22;45713;-60
2021/08/30 07:42:36;;;;;;;;;21.50;19.75;;;;;19.50;68.59;101776.50;6273951;22;45305;-59
2021/08/30 07:45:01;;;;;;;;;19.25;18.00;;;;;19.54;68.15;101775.31;6273710;22;45371;-60
2021/08/30 07:47:27;;;;;;;;;24.25;16.50;;;;;19.61;67.69;101781.03;6274501;22;45189;-60
2021/08/30 07:49:53;;;;;;;;;24.75;21.75;;;;;19.62;67.82;101782.75;6274030;22;45926;-59
2021/08/30 07:52:20;;;;;;;;;21.75;20.75;;;;;19.70;67.79;101786.50;6273605;22;45314;-60
2021/08/30 07:54:47;;;;;;;;;18.00;16.75;;;;;19.76;67.10;101782.47;6274743;22;45164;-60
2021/08/30 07:57:13;;;;;;;;;21.75;20.00;;;;;19.81;67.13;101788.28;6275828;22;45448;-60
2021/08/30 07:59:38;;;;;;;;;19.25;16.75;;;;;19.83;66.56;101785.47;6276055;22;45189;-60
2021/08/30 08:02:04;;;;;;;;;19.75;17.00;;;;;19.89;66.53;101788.50;6275663;22;45336;-59
2021/08/30 08:04:29;;;;;;;;;16.25;14.00;;;;;19.94;66.13;101802.34;6275080;22;45255;-59
2021/08/30 08:06:55;;;;;;;;;19.00;17.75;;;;;19.95;66.09;101784.47;6275485;22;45410;-59
2021/08/30 08:09:20;;;;;;;;;22.25;20.25;;;;;19.94;65.76;101802.34;6275704;22;45484;-59
2021/08/30 08:11:47;;;;;;;;;19.75;15.75;;;;;19.99;65.74;101799.31;6275527;22;45344;-60
2021/08/30 08:14:12;;;;;;;;;23.25;18.00;;;;;20.01;65.63;101800.88;6275774;22;45177;-60
2021/08/30 08:16:38;;;;;;;;;57.00;43.50;;;;;20.03;65.37;101808.78;6275341;22;45224;-60
2021/08/30 08:19:04;;;;;;;;;20.25;16.25;;;;;20.03;65.51;101801.59;6275403;22;45981;-60
2021/08/30 08:21:30;;;;;;;;;21.50;16.00;;;;;20.08;65.10;101801.22;6275106;22;45222;-60
2021/08/30 08:23:56;;;;;;;;;20.00;15.25;;;;;20.08;64.78;101807.44;6275330;22;45162;-60
2021/08/30 08:26:21;;;;;;;;;23.25;17.50;;;;;20.10;64.78;101807.28;6275395;22;45326;-60
2021/08/30 08:28:47;;;;;;;;;17.50;16.75;;;;;20.11;65.03;101800.97;6275498;22;45585;-60
2021/08/30 08:31:12;;;;;;;;;17.50;17.00;;;;;20.16;65.15;101805.94;6275694;22;45323;-61
2021/08/30 08:33:38;;;;;;;;;15.75;14.75;;;;;20.18;64.42;101803.97;6275836;22;45211;-60
2021/08/30 08:36:04;;;;;;;;;22.25;18.25;;;;;20.19;64.37;101809.19;6274552;22;45314;-60
2021/08/30 08:38:29;;;;;;;;;20.00;18.00;;;;;20.23;63.95;101812.50;6274700;22;45208;-60
2021/08/30 08:40:56;;;;;;;;;18.75;18.00;;;;;20.26;64.66;101806.88;6275444;22;45235;-60
2021/08/30 08:43:22;;;;;;;;;20.00;18.00;;;;;20.29;64.14;101812.81;6275178;22;45361;-60
2021/08/30 08:45:50;;;;;;;;;15.25;14.25;;;;;20.36;63.78;101814.00;6273150;22;45213;-60
2021/08/30 08:48:16;;;;;;;;;15.50;15.50;;;;;20.42;63.79;101801.09;6275170;22;46162;-60
2021/08/30 08:50:44;;;;;;;;;16.00;15.50;;;;;20.48;63.21;101814.00;6274529;22;45250;-60
2021/08/30 08:53:09;;;;;;;;;20.25;17.25;;;;;20.53;62.81;101819.78;6275204;22;45234;-60
2021/08/30 08:55:35;;;;;;;;;14.25;13.50;;;;;20.55;63.14;101818.72;6273133;22;45255;-60
2021/08/30 08:58:12;;;;;;;;;15.25;14.00;;;;;20.61;63.10;101812.81;6275061;22;46080;-59
2021/08/30 09:00:43;;;;;;;;;15.25;14.25;;;;;20.68;62.74;101815.81;6275348;22;45316;-60
2021/08/30 09:03:20;;;;;;;;;16.00;13.00;;;;;20.71;61.63;101820.94;6275401;22;45242;-60
2021/08/30 09:05:46;;;;;;;;;28.50;25.50;;;;;20.75;62.09;101817.00;6274269;22;45254;-60
2021/08/30 09:08:47;;;;;;;;;18.00;16.50;;;;;20.80;62.16;101820.16;6275026;22;46034;-60
2021/08/30 09:11:22;;;;;;;;;17.50;15.75;;;;;20.82;61.65;101812.81;6308309;22;45266;-60
2021/08/30 09:13:55;;;;;;;;;16.25;14.75;;;;;20.86;61.56;101826.81;6278982;22;45405;-60
2021/08/30 09:16:24;;;;;;;;;18.50;16.00;;;;;20.84;61.48;101821.56;6272897;22;45289;-60
2021/08/30 09:18:49;;;;;;;;;40.75;34.00;;;;;20.84;61.33;101826.06;6273963;22;45363;-61
2021/08/30 09:21:17;;;;;;;;;18.75;17.00;;;;;20.83;61.29;101827.91;6272256;22;45202;-60
2021/08/30 09:23:44;;;;;;;;;32.75;27.50;;;;;20.81;61.32;101824.53;6274927;22;45147;-60
2021/08/30 09:26:18;;;;;;;;;25.00;23.00;;;;;20.84;61.44;101836.78;6275033;22;45106;-60
2021/08/30 09:28:53;;;;;;;;;21.75;19.75;;;;;20.82;61.30;101836.09;6274446;22;46061;-60
2021/08/30 09:31:20;;;;;;;;;17.00;15.25;;;;;20.81;61.02;101832.56;6274281;22;45174;-60
2021/08/30 09:33:50;;;;;;;;;20.75;18.50;;;;;20.84;60.99;101837.63;6274970;22;45195;-60
2021/08/30 09:36:17;;;;;;;;;18.75;14.25;;;;;20.85;60.53;101830.44;6273469;22;45254;-60
2021/08/30 09:38:43;;;;;;;;;34.75;22.75;;;;;20.83;60.40;101835.94;6274388;22;46198;-61
2021/08/30 09:41:10;;;;;;;;;16.50;14.75;;;;;20.83;60.36;101829.75;6274239;22;45310;-60
2021/08/30 09:43:37;;;;;;;;;15.25;13.25;;;;;20.83;60.70;101837.78;6274292;22;45172;-60
2021/08/30 09:46:04;;;;;;;;;17.50;15.50;;;;;20.88;60.84;101831.06;6274173;22;45217;-60
2021/08/30 09:48:30;;;;;;;;;12.25;12.25;;;;;20.98;60.26;101831.09;6274898;22;45985;-59
2021/08/30 09:51:04;;;;;;;;;13.00;13.00;;;;;20.99;60.47;101834.63;6273728;22;45351;-60
2021/08/30 09:53:32;;;;;;;;;17.75;14.00;;;;;20.93;60.15;101841.34;6274285;22;45256;-60
2021/08/30 09:55:59;;;;;;;;;15.75;14.00;;;;;20.90;59.76;101839.81;6274046;22;45444;-60
2021/08/30 09:58:28;;;;;;;;;18.50;16.75;;;;;20.88;59.77;101833.72;6274409;22;46055;-60
2021/08/30 10:01:00;;;;;;;;;19.75;14.25;;;;;20.88;59.97;101831.06;6273858;22;45330;-60
2021/08/30 10:03:29;;;;;;;;;14.00;12.75;;;;;20.91;59.71;101828.09;6273907;22;45335;-60
2021/08/30 10:05:56;;;;;;;;;13.75;13.25;;;;;20.98;59.41;101825.75;6273291;22;45348;-60
2021/08/30 10:08:23;;;;;;;;;15.25;13.00;;;;;21.07;59.02;101818.75;6274620;22;45266;-60
2021/08/30 10:10:49;;;;;;;;;15.75;15.75;;;;;21.14;59.27;101825.28;6272432;22;45248;-60
2021/08/30 10:13:17;;;;;;;;;18.25;15.25;;;;;21.15;59.20;101830.50;6272766;22;45241;-60
2021/08/30 10:15:43;;;;;;;;;12.75;11.75;;;;;21.17;58.83;101825.88;6274014;22;45501;-60
2021/08/30 10:18:16;;;;;;;;;13.75;13.75;;;;;21.20;58.90;101819.38;6274136;22;45294;-60
2021/08/30 10:20:42;;;;;;;;;17.25;16.50;;;;;21.30;58.95;101819.47;6273509;22;45158;-60
2021/08/30 10:23:09;;;;;;;;;13.00;13.00;;;;;21.36;58.37;101821.63;6274324;22;45310;-60
2021/08/30 10:25:38;;;;;;;;;16.75;14.75;;;;;21.44;58.36;101816.41;6274371;22;45402;-61
2021/08/30 10:28:06;;;;;;;;;17.75;14.25;;;;;21.46;58.32;101817.97;6274580;22;46346;-60
2021/08/30 10:30:35;;;;;;;;;10.00;10.00;;;;;21.42;57.70;101816.56;6273544;22;45218;-59
2021/08/30 10:33:02;;;;;;;;;12.50;10.75;;;;;21.39;57.65;101826.69;6272062;22;45261;-60
2021/08/30 10:35:34;;;;;;;;;15.50;15.00;;;;;21.38;57.60;101820.47;6273888;22;45235;-60
2021/08/30 10:38:03;;;;;;;;;18.75;15.00;;;;;21.38;58.00;101822.31;6272988;22;45986;-60
2021/08/30 10:40:32;;;;;;;;;19.50;14.00;;;;;21.37;57.92;101821.47;6273256;22;45121;-60
2021/08/30 10:43:15;;;;;;;;;14.00;11.25;;;;;21.33;58.06;101820.06;6274144;22;45288;-60
2021/08/30 10:45:42;;;;;;;;;22.00;19.75;;;;;21.29;58.29;101826.66;6273108;22;45167;-60
2021/08/30 10:48:11;;;;;;;;;14.25;13.00;;;;;21.29;58.27;101820.44;6273494;22;45227;-60
2021/08/30 10:50:43;;;;;;;;;16.50;13.00;;;;;21.29;58.18;101818.63;6272810;22;45239;-61
2021/08/30 10:53:15;;;;;;;;;16.75;16.50;;;;;21.32;58.05;101817.50;6270365;22;45302;-60
2021/08/30 10:55:43;;;;;;;;;14.25;13.00;;;;;21.40;57.45;101821.19;6272710;22;45373;-60
2021/08/30 10:58:17;;;;;;;;;15.75;14.50;;;;;21.52;57.64;101815.75;6272906;22;45456;-60
2021/08/30 11:00:43;;;;;;;;;13.25;13.25;;;;;21.66;57.60;101818.06;6274055;22;45281;-60
2021/08/30 11:03:09;;;;;;;;;14.25;14.25;;;;;21.76;57.03;101812.72;6274275;22;45257;-60
2021/08/30 11:05:35;;;;;;;;;17.25;15.25;;;;;21.90;56.96;101815.84;6272783;22;45485;-60
2021/08/30 11:08:01;;;;;;;;;13.75;12.00;;;;;22.08;56.33;101810.69;6272935;22;45208;-60
2021/08/30 11:10:28;;;;;;;;;13.25;12.75;;;;;22.18;56.51;101811.53;6273970;22;45238;-60
2021/08/30 11:12:57;;;;;;;;;14.75;11.75;;;;;22.26;56.49;101811.69;6273779;22;45155;-60
2021/08/30 11:15:30;;;;;;;;;16.75;13.50;;;;;22.27;55.79;101808.00;6272774;22;45339;-59